KBED

Laurence G Hanscom Field Airport

Bedford, Massachusetts, USA
METAR KBED 211456Z 32013G19KT 10SM CLR 11/M05 A3028 RMK AO2 SLP268 T01111050 56008
Observed Flight Rules
Apr-21 @ 14:56 UTC (37 minutes ago) Visual Flight Rules
Wind Visibility Clouds
320° at 13 knots
 Gusting to 19 knots
10 miles
  • Clear skies
Temperatures Readings
Current 11°C / 52°F
Dewpoint -5°C / 23°F
Humidity 32%
Altimeter 30.28" Hg
Pressure 1026.8 hPa
Elevation 50
METAR KBED 211456Z 32013G19KT 10SM CLR 11/M05 A3028 RMK AO2 SLP268 T01111050 56008
Observed Flight Rules
Apr-21 @ 14:56 UTC
(37 minutes ago)
VFR
Wind Visibility
320° at 13 knots
 Gusting to 19 knots
10 miles
Clouds
  • Clear skies
Temperature Dewpoint
11°C / 52°F -5°C / 23°F
Humidity Altimeter Pressure
32% 30.28" Hg 1026.8 hPa